sensor_id;sensor_type;location;lat;lon;timestamp;P1;durP1;ratioP1;P2;durP2;ratioP2
19566;SDS011;9930;49.240;8.548;2023-10-13T00:02:11;7.90;;;6.70;;
19566;SDS011;9930;49.240;8.548;2023-10-13T00:04:39;6.85;;;5.90;;
19566;SDS011;9930;49.240;8.548;2023-10-13T00:07:07;6.65;;;6.05;;
19566;SDS011;9930;49.240;8.548;2023-10-13T00:09:37;7.05;;;6.13;;
19566;SDS011;9930;49.240;8.548;2023-10-13T00:12:05;6.93;;;6.22;;
19566;SDS011;9930;49.240;8.548;2023-10-13T00:14:39;6.60;;;6.00;;
19566;SDS011;9930;49.240;8.548;2023-10-13T00:17:10;6.78;;;6.03;;
19566;SDS011;9930;49.240;8.548;2023-10-13T00:19:44;7.10;;;6.50;;
19566;SDS011;9930;49.240;8.548;2023-10-13T00:22:16;7.57;;;6.80;;
19566;SDS011;9930;49.240;8.548;2023-10-13T00:24:45;7.32;;;6.63;;
19566;SDS011;9930;49.240;8.548;2023-10-13T00:27:11;7.95;;;7.15;;
19566;SDS011;9930;49.240;8.548;2023-10-13T00:33:00;7.20;;;6.50;;
19566;SDS011;9930;49.240;8.548;2023-10-13T00:35:26;6.50;;;5.85;;
19566;SDS011;9930;49.240;8.548;2023-10-13T00:37:57;6.53;;;5.85;;
19566;SDS011;9930;49.240;8.548;2023-10-13T00:40:29;7.05;;;6.35;;
19566;SDS011;9930;49.240;8.548;2023-10-13T00:42:59;6.90;;;6.20;;
19566;SDS011;9930;49.240;8.548;2023-10-13T00:45:50;6.82;;;6.22;;
19566;SDS011;9930;49.240;8.548;2023-10-13T00:48:31;5.72;;;5.18;;
19566;SDS011;9930;49.240;8.548;2023-10-13T00:51:04;6.32;;;5.72;;
19566;SDS011;9930;49.240;8.548;2023-10-13T00:53:41;6.10;;;5.50;;
19566;SDS011;9930;49.240;8.548;2023-10-13T00:56:09;6.53;;;5.97;;
19566;SDS011;9930;49.240;8.548;2023-10-13T00:58:51;6.05;;;5.53;;
19566;SDS011;9930;49.240;8.548;2023-10-13T01:01:23;7.15;;;6.45;;
19566;SDS011;9930;49.240;8.548;2023-10-13T01:03:55;7.15;;;6.45;;
19566;SDS011;9930;49.240;8.548;2023-10-13T01:06:24;7.93;;;7.13;;
19566;SDS011;9930;49.240;8.548;2023-10-13T01:11:25;7.03;;;6.32;;
19566;SDS011;9930;49.240;8.548;2023-10-13T01:13:54;7.10;;;6.40;;
19566;SDS011;9930;49.240;8.548;2023-10-13T01:16:22;6.90;;;6.28;;
19566;SDS011;9930;49.240;8.548;2023-10-13T01:18:53;6.38;;;5.78;;
19566;SDS011;9930;49.240;8.548;2023-10-13T01:21:24;6.82;;;6.18;;
19566;SDS011;9930;49.240;8.548;2023-10-13T01:23:54;8.52;;;6.32;;
19566;SDS011;9930;49.240;8.548;2023-10-13T01:26:21;6.85;;;6.20;;
19566;SDS011;9930;49.240;8.548;2023-10-13T01:28:56;6.95;;;6.07;;
19566;SDS011;9930;49.240;8.548;2023-10-13T01:31:23;6.43;;;5.75;;
19566;SDS011;9930;49.240;8.548;2023-10-13T01:34:02;6.15;;;5.55;;
19566;SDS011;9930;49.240;8.548;2023-10-13T01:36:28;6.38;;;5.75;;
19566;SDS011;9930;49.240;8.548;2023-10-13T01:39:00;6.20;;;5.40;;
19566;SDS011;9930;49.240;8.548;2023-10-13T01:41:26;6.22;;;5.63;;
19566;SDS011;9930;49.240;8.548;2023-10-13T01:43:56;6.63;;;5.63;;
19566;SDS011;9930;49.240;8.548;2023-10-13T01:46:22;6.88;;;5.60;;
19566;SDS011;9930;49.240;8.548;2023-10-13T01:48:48;6.20;;;5.40;;
19566;SDS011;9930;49.240;8.548;2023-10-13T01:51:16;6.15;;;5.45;;
19566;SDS011;9930;49.240;8.548;2023-10-13T01:53:42;6.18;;;5.60;;
19566;SDS011;9930;49.240;8.548;2023-10-13T01:56:08;6.07;;;5.40;;
19566;SDS011;9930;49.240;8.548;2023-10-13T01:58:37;6.57;;;5.57;;
19566;SDS011;9930;49.240;8.548;2023-10-13T02:01:09;6.20;;;5.60;;
19566;SDS011;9930;49.240;8.548;2023-10-13T02:03:36;6.85;;;5.50;;
19566;SDS011;9930;49.240;8.548;2023-10-13T02:06:11;5.53;;;5.03;;
19566;SDS011;9930;49.240;8.548;2023-10-13T02:08:49;6.40;;;5.65;;
19566;SDS011;9930;49.240;8.548;2023-10-13T02:11:22;6.32;;;5.13;;
19566;SDS011;9930;49.240;8.548;2023-10-13T02:13:49;6.30;;;5.70;;
19566;SDS011;9930;49.240;8.548;2023-10-13T02:16:18;6.10;;;5.50;;
19566;SDS011;9930;49.240;8.548;2023-10-13T02:18:47;5.97;;;5.38;;
19566;SDS011;9930;49.240;8.548;2023-10-13T02:21:18;7.00;;;5.45;;
19566;SDS011;9930;49.240;8.548;2023-10-13T02:23:45;5.72;;;5.13;;
19566;SDS011;9930;49.240;8.548;2023-10-13T02:26:24;5.40;;;4.90;;
19566;SDS011;9930;49.240;8.548;2023-10-13T02:29:03;6.07;;;5.25;;
19566;SDS011;9930;49.240;8.548;2023-10-13T02:31:43;5.70;;;5.07;;
19566;SDS011;9930;49.240;8.548;2023-10-13T02:34:19;6.03;;;5.43;;
19566;SDS011;9930;49.240;8.548;2023-10-13T02:36:47;6.70;;;5.07;;
19566;SDS011;9930;49.240;8.548;2023-10-13T02:39:16;5.50;;;5.00;;
19566;SDS011;9930;49.240;8.548;2023-10-13T02:41:50;5.85;;;5.30;;
19566;SDS011;9930;49.240;8.548;2023-10-13T02:44:17;6.97;;;5.20;;
19566;SDS011;9930;49.240;8.548;2023-10-13T02:47:02;6.95;;;5.47;;
19566;SDS011;9930;49.240;8.548;2023-10-13T02:49:39;6.30;;;5.70;;
19566;SDS011;9930;49.240;8.548;2023-10-13T02:52:12;6.13;;;5.30;;
19566;SDS011;9930;49.240;8.548;2023-10-13T02:54:41;5.95;;;5.35;;
19566;SDS011;9930;49.240;8.548;2023-10-13T02:57:18;6.80;;;5.78;;
19566;SDS011;9930;49.240;8.548;2023-10-13T02:59:48;6.00;;;5.40;;
19566;SDS011;9930;49.240;8.548;2023-10-13T03:02:22;5.90;;;5.30;;
19566;SDS011;9930;49.240;8.548;2023-10-13T03:04:53;6.75;;;6.05;;
19566;SDS011;9930;49.240;8.548;2023-10-13T03:07:34;6.18;;;5.57;;
19566;SDS011;9930;49.240;8.548;2023-10-13T03:10:01;5.28;;;4.78;;
19566;SDS011;9930;49.240;8.548;2023-10-13T03:12:40;6.00;;;5.35;;
19566;SDS011;9930;49.240;8.548;2023-10-13T03:15:13;8.80;;;5.50;;
19566;SDS011;9930;49.240;8.548;2023-10-13T03:17:42;5.95;;;5.45;;
19566;SDS011;9930;49.240;8.548;2023-10-13T03:20:15;5.85;;;5.20;;
19566;SDS011;9930;49.240;8.548;2023-10-13T03:22:52;7.20;;;5.50;;
19566;SDS011;9930;49.240;8.548;2023-10-13T03:25:18;6.20;;;5.07;;
19566;SDS011;9930;49.240;8.548;2023-10-13T03:28:09;6.53;;;5.43;;
19566;SDS011;9930;49.240;8.548;2023-10-13T03:30:38;5.95;;;5.40;;
19566;SDS011;9930;49.240;8.548;2023-10-13T03:33:06;7.10;;;5.65;;
19566;SDS011;9930;49.240;8.548;2023-10-13T03:35:51;6.90;;;5.30;;
19566;SDS011;9930;49.240;8.548;2023-10-13T03:38:33;5.40;;;4.90;;
19566;SDS011;9930;49.240;8.548;2023-10-13T03:41:04;6.30;;;5.63;;
19566;SDS011;9930;49.240;8.548;2023-10-13T03:43:31;7.03;;;5.20;;
19566;SDS011;9930;49.240;8.548;2023-10-13T03:46:32;6.00;;;5.50;;
19566;SDS011;9930;49.240;8.548;2023-10-13T03:49:01;5.82;;;5.32;;
19566;SDS011;9930;49.240;8.548;2023-10-13T03:51:31;6.22;;;5.43;;
19566;SDS011;9930;49.240;8.548;2023-10-13T03:53:59;5.57;;;5.05;;
19566;SDS011;9930;49.240;8.548;2023-10-13T03:56:32;8.18;;;6.03;;
19566;SDS011;9930;49.240;8.548;2023-10-13T03:59:03;7.78;;;5.85;;
19566;SDS011;9930;49.240;8.548;2023-10-13T04:01:43;5.68;;;5.18;;
19566;SDS011;9930;49.240;8.548;2023-10-13T04:04:16;5.45;;;4.93;;
19566;SDS011;9930;49.240;8.548;2023-10-13T04:07:02;6.13;;;5.50;;
19566;SDS011;9930;49.240;8.548;2023-10-13T04:09:37;6.43;;;5.35;;
19566;SDS011;9930;49.240;8.548;2023-10-13T04:12:12;6.18;;;5.57;;
19566;SDS011;9930;49.240;8.548;2023-10-13T04:14:44;6.05;;;5.45;;
19566;SDS011;9930;49.240;8.548;2023-10-13T04:17:28;7.35;;;5.32;;
19566;SDS011;9930;49.240;8.548;2023-10-13T04:19:58;5.25;;;4.85;;
19566;SDS011;9930;49.240;8.548;2023-10-13T04:22:34;5.75;;;5.15;;
19566;SDS011;9930;49.240;8.548;2023-10-13T04:25:16;5.82;;;5.22;;
19566;SDS011;9930;49.240;8.548;2023-10-13T04:28:02;5.47;;;5.05;;
19566;SDS011;9930;49.240;8.548;2023-10-13T04:30:59;5.82;;;4.72;;
19566;SDS011;9930;49.240;8.548;2023-10-13T04:33:38;5.53;;;5.03;;
19566;SDS011;9930;49.240;8.548;2023-10-13T04:36:17;5.78;;;4.97;;
19566;SDS011;9930;49.240;8.548;2023-10-13T04:38:50;5.93;;;5.43;;
19566;SDS011;9930;49.240;8.548;2023-10-13T04:41:38;5.78;;;4.57;;
19566;SDS011;9930;49.240;8.548;2023-10-13T04:44:11;5.13;;;4.68;;
19566;SDS011;9930;49.240;8.548;2023-10-13T04:47:01;5.65;;;4.90;;
19566;SDS011;9930;49.240;8.548;2023-10-13T04:49:30;5.90;;;5.18;;
19566;SDS011;9930;49.240;8.548;2023-10-13T04:52:01;5.28;;;4.78;;
19566;SDS011;9930;49.240;8.548;2023-10-13T04:54:31;6.47;;;5.32;;
19566;SDS011;9930;49.240;8.548;2023-10-13T04:56:59;6.07;;;4.85;;
19566;SDS011;9930;49.240;8.548;2023-10-13T04:59:44;5.78;;;4.80;;
19566;SDS011;9930;49.240;8.548;2023-10-13T05:02:33;5.47;;;4.97;;
19566;SDS011;9930;49.240;8.548;2023-10-13T05:05:09;6.63;;;5.70;;
19566;SDS011;9930;49.240;8.548;2023-10-13T05:07:42;5.60;;;5.10;;
19566;SDS011;9930;49.240;8.548;2023-10-13T05:10:30;5.05;;;4.65;;
19566;SDS011;9930;49.240;8.548;2023-10-13T05:13:15;6.03;;;5.38;;
19566;SDS011;9930;49.240;8.548;2023-10-13T05:16:00;5.40;;;4.90;;
19566;SDS011;9930;49.240;8.548;2023-10-13T05:18:44;5.78;;;5.18;;
19566;SDS011;9930;49.240;8.548;2023-10-13T05:21:29;5.93;;;5.32;;
19566;SDS011;9930;49.240;8.548;2023-10-13T05:24:14;5.78;;;5.28;;
19566;SDS011;9930;49.240;8.548;2023-10-13T05:27:02;5.80;;;5.20;;
19566;SDS011;9930;49.240;8.548;2023-10-13T05:29:46;5.93;;;5.32;;
19566;SDS011;9930;49.240;8.548;2023-10-13T05:32:31;5.93;;;5.32;;
19566;SDS011;9930;49.240;8.548;2023-10-13T05:35:16;5.85;;;5.05;;
19566;SDS011;9930;49.240;8.548;2023-10-13T05:38:04;6.78;;;5.20;;
19566;SDS011;9930;49.240;8.548;2023-10-13T05:40:59;6.50;;;5.45;;
19566;SDS011;9930;49.240;8.548;2023-10-13T05:43:46;5.90;;;5.35;;
19566;SDS011;9930;49.240;8.548;2023-10-13T05:46:31;6.20;;;4.95;;
19566;SDS011;9930;49.240;8.548;2023-10-13T05:49:06;5.30;;;4.80;;
19566;SDS011;9930;49.240;8.548;2023-10-13T05:51:34;6.78;;;5.32;;
19566;SDS011;9930;49.240;8.548;2023-10-13T05:54:17;6.15;;;5.45;;
19566;SDS011;9930;49.240;8.548;2023-10-13T05:56:47;6.38;;;4.80;;
19566;SDS011;9930;49.240;8.548;2023-10-13T05:59:33;5.30;;;4.80;;
19566;SDS011;9930;49.240;8.548;2023-10-13T06:02:21;6.65;;;5.40;;
19566;SDS011;9930;49.240;8.548;2023-10-13T06:05:08;5.60;;;5.10;;
19566;SDS011;9930;49.240;8.548;2023-10-13T06:07:54;6.72;;;5.45;;
19566;SDS011;9930;49.240;8.548;2023-10-13T06:10:39;5.55;;;4.80;;
19566;SDS011;9930;49.240;8.548;2023-10-13T06:13:24;5.40;;;4.90;;
19566;SDS011;9930;49.240;8.548;2023-10-13T06:16:10;6.13;;;5.05;;
19566;SDS011;9930;49.240;8.548;2023-10-13T06:19:00;6.20;;;5.13;;
19566;SDS011;9930;49.240;8.548;2023-10-13T06:21:45;7.70;;;5.25;;
19566;SDS011;9930;49.240;8.548;2023-10-13T06:24:30;6.53;;;4.70;;
19566;SDS011;9930;49.240;8.548;2023-10-13T06:27:15;6.82;;;5.07;;
19566;SDS011;9930;49.240;8.548;2023-10-13T06:29:59;7.15;;;5.75;;
19566;SDS011;9930;49.240;8.548;2023-10-13T06:32:26;6.50;;;5.20;;
19566;SDS011;9930;49.240;8.548;2023-10-13T06:34:55;8.63;;;5.70;;
19566;SDS011;9930;49.240;8.548;2023-10-13T06:37:23;8.85;;;6.45;;
19566;SDS011;9930;49.240;8.548;2023-10-13T06:39:58;6.03;;;5.22;;
19566;SDS011;9930;49.240;8.548;2023-10-13T06:42:33;6.97;;;5.40;;
19566;SDS011;9930;49.240;8.548;2023-10-13T06:45:07;5.95;;;4.93;;
19566;SDS011;9930;49.240;8.548;2023-10-13T06:47:37;6.13;;;4.93;;
19566;SDS011;9930;49.240;8.548;2023-10-13T06:50:10;8.02;;;5.07;;
19566;SDS011;9930;49.240;8.548;2023-10-13T06:52:50;6.90;;;5.10;;
19566;SDS011;9930;49.240;8.548;2023-10-13T06:55:20;8.50;;;5.57;;
19566;SDS011;9930;49.240;8.548;2023-10-13T06:57:56;9.07;;;5.68;;
19566;SDS011;9930;49.240;8.548;2023-10-13T07:00:24;7.57;;;5.78;;
19566;SDS011;9930;49.240;8.548;2023-10-13T07:02:59;5.82;;;5.10;;
19566;SDS011;9930;49.240;8.548;2023-10-13T07:05:38;5.97;;;5.10;;
19566;SDS011;9930;49.240;8.548;2023-10-13T07:08:06;5.38;;;4.88;;
19566;SDS011;9930;49.240;8.548;2023-10-13T07:10:46;6.07;;;4.82;;
19566;SDS011;9930;49.240;8.548;2023-10-13T07:13:27;5.80;;;5.10;;
19566;SDS011;9930;49.240;8.548;2023-10-13T07:16:01;7.30;;;4.93;;
19566;SDS011;9930;49.240;8.548;2023-10-13T07:18:37;6.03;;;4.88;;
19566;SDS011;9930;49.240;8.548;2023-10-13T07:21:14;5.10;;;4.45;;
19566;SDS011;9930;49.240;8.548;2023-10-13T07:23:41;6.35;;;4.75;;
19566;SDS011;9930;49.240;8.548;2023-10-13T07:26:21;6.80;;;4.72;;
19566;SDS011;9930;49.240;8.548;2023-10-13T07:28:48;7.10;;;5.20;;
19566;SDS011;9930;49.240;8.548;2023-10-13T07:31:16;7.80;;;4.97;;
19566;SDS011;9930;49.240;8.548;2023-10-13T07:33:46;6.60;;;5.00;;
19566;SDS011;9930;49.240;8.548;2023-10-13T07:36:12;5.47;;;4.55;;
19566;SDS011;9930;49.240;8.548;2023-10-13T07:38:55;7.13;;;4.65;;
19566;SDS011;9930;49.240;8.548;2023-10-13T07:41:47;5.78;;;5.03;;
19566;SDS011;9930;49.240;8.548;2023-10-13T07:44:21;6.28;;;5.15;;
19566;SDS011;9930;49.240;8.548;2023-10-13T07:46:50;6.00;;;5.40;;
19566;SDS011;9930;49.240;8.548;2023-10-13T07:49:31;4.97;;;4.57;;
19566;SDS011;9930;49.240;8.548;2023-10-13T07:52:07;5.32;;;4.55;;
19566;SDS011;9930;49.240;8.548;2023-10-13T07:54:49;5.40;;;4.50;;
19566;SDS011;9930;49.240;8.548;2023-10-13T07:57:36;5.15;;;4.65;;
19566;SDS011;9930;49.240;8.548;2023-10-13T08:00:20;4.80;;;4.30;;
19566;SDS011;9930;49.240;8.548;2023-10-13T08:03:08;5.32;;;4.45;;
19566;SDS011;9930;49.240;8.548;2023-10-13T08:05:40;4.68;;;4.20;;
19566;SDS011;9930;49.240;8.548;2023-10-13T08:08:28;5.18;;;4.68;;
19566;SDS011;9930;49.240;8.548;2023-10-13T08:11:10;6.18;;;4.97;;
19566;SDS011;9930;49.240;8.548;2023-10-13T08:13:52;4.88;;;3.97;;
19566;SDS011;9930;49.240;8.548;2023-10-13T08:16:23;5.57;;;3.97;;
19566;SDS011;9930;49.240;8.548;2023-10-13T08:19:17;4.80;;;4.07;;
19566;SDS011;9930;49.240;8.548;2023-10-13T08:21:57;5.07;;;3.95;;
19566;SDS011;9930;49.240;8.548;2023-10-13T08:24:46;5.70;;;4.00;;
19566;SDS011;9930;49.240;8.548;2023-10-13T08:27:14;6.07;;;4.07;;
19566;SDS011;9930;49.240;8.548;2023-10-13T08:30:02;4.00;;;3.60;;
19566;SDS011;9930;49.240;8.548;2023-10-13T08:32:49;4.70;;;3.58;;
19566;SDS011;9930;49.240;8.548;2023-10-13T08:35:29;4.80;;;4.03;;
19566;SDS011;9930;49.240;8.548;2023-10-13T08:38:09;5.18;;;3.63;;
19566;SDS011;9930;49.240;8.548;2023-10-13T08:40:43;3.75;;;3.35;;
19566;SDS011;9930;49.240;8.548;2023-10-13T08:43:31;4.53;;;3.40;;
19566;SDS011;9930;49.240;8.548;2023-10-13T08:46:09;4.22;;;3.33;;
19566;SDS011;9930;49.240;8.548;2023-10-13T08:48:57;5.03;;;3.42;;
19566;SDS011;9930;49.240;8.548;2023-10-13T08:51:39;4.20;;;3.70;;
19566;SDS011;9930;49.240;8.548;2023-10-13T08:54:14;5.82;;;3.08;;
19566;SDS011;9930;49.240;8.548;2023-10-13T08:56:58;4.53;;;3.85;;
19566;SDS011;9930;49.240;8.548;2023-10-13T08:59:44;4.53;;;3.67;;
19566;SDS011;9930;49.240;8.548;2023-10-13T09:02:40;4.65;;;3.40;;
19566;SDS011;9930;49.240;8.548;2023-10-13T09:05:31;4.50;;;3.40;;
19566;SDS011;9930;49.240;8.548;2023-10-13T09:08:25;3.92;;;3.30;;
19566;SDS011;9930;49.240;8.548;2023-10-13T09:11:12;3.67;;;3.13;;
19566;SDS011;9930;49.240;8.548;2023-10-13T09:13:38;4.18;;;3.40;;
19566;SDS011;9930;49.240;8.548;2023-10-13T09:16:09;3.47;;;3.13;;
19566;SDS011;9930;49.240;8.548;2023-10-13T09:19:08;3.88;;;3.47;;
19566;SDS011;9930;49.240;8.548;2023-10-13T09:21:41;4.65;;;3.22;;
19566;SDS011;9930;49.240;8.548;2023-10-13T09:24:11;4.75;;;3.00;;
19566;SDS011;9930;49.240;8.548;2023-10-13T09:26:55;4.28;;;3.10;;
19566;SDS011;9930;49.240;8.548;2023-10-13T09:29:29;3.90;;;3.20;;
19566;SDS011;9930;49.240;8.548;2023-10-13T09:32:03;4.03;;;3.15;;
19566;SDS011;9930;49.240;8.548;2023-10-13T09:34:36;3.50;;;3.20;;
19566;SDS011;9930;49.240;8.548;2023-10-13T09:37:05;4.47;;;3.20;;
19566;SDS011;9930;49.240;8.548;2023-10-13T09:39:34;3.83;;;3.22;;
19566;SDS011;9930;49.240;8.548;2023-10-13T09:42:09;5.13;;;3.05;;
19566;SDS011;9930;49.240;8.548;2023-10-13T09:44:40;3.85;;;2.75;;
19566;SDS011;9930;49.240;8.548;2023-10-13T09:47:14;4.35;;;3.00;;
19566;SDS011;9930;49.240;8.548;2023-10-13T09:49:51;4.68;;;3.05;;
19566;SDS011;9930;49.240;8.548;2023-10-13T09:52:31;3.67;;;2.72;;
19566;SDS011;9930;49.240;8.548;2023-10-13T09:55:05;4.15;;;2.80;;
19566;SDS011;9930;49.240;8.548;2023-10-13T09:58:00;6.40;;;2.80;;
19566;SDS011;9930;49.240;8.548;2023-10-13T10:00:51;4.53;;;2.80;;
19566;SDS011;9930;49.240;8.548;2023-10-13T10:03:32;3.97;;;2.72;;
19566;SDS011;9930;49.240;8.548;2023-10-13T10:06:08;3.70;;;2.80;;
19566;SDS011;9930;49.240;8.548;2023-10-13T10:08:42;4.03;;;3.00;;
19566;SDS011;9930;49.240;8.548;2023-10-13T10:17:11;4.38;;;3.00;;
19566;SDS011;9930;49.240;8.548;2023-10-13T10:19:46;4.45;;;2.90;;
19566;SDS011;9930;49.240;8.548;2023-10-13T10:22:13;3.00;;;2.65;;
19566;SDS011;9930;49.240;8.548;2023-10-13T10:24:55;3.90;;;2.65;;
19566;SDS011;9930;49.240;8.548;2023-10-13T10:27:31;5.80;;;2.90;;
19566;SDS011;9930;49.240;8.548;2023-10-13T10:29:59;3.22;;;2.80;;
19566;SDS011;9930;49.240;8.548;2023-10-13T10:32:32;3.33;;;2.90;;
19566;SDS011;9930;49.240;8.548;2023-10-13T10:35:06;3.95;;;2.70;;
19566;SDS011;9930;49.240;8.548;2023-10-13T10:37:48;4.47;;;2.67;;
19566;SDS011;9930;49.240;8.548;2023-10-13T10:40:30;6.43;;;3.10;;
19566;SDS011;9930;49.240;8.548;2023-10-13T10:43:13;5.35;;;2.90;;
19566;SDS011;9930;49.240;8.548;2023-10-13T10:45:48;3.60;;;2.92;;
19566;SDS011;9930;49.240;8.548;2023-10-13T10:48:14;3.03;;;2.53;;
19566;SDS011;9930;49.240;8.548;2023-10-13T10:50:52;4.30;;;2.65;;
19566;SDS011;9930;49.240;8.548;2023-10-13T10:53:31;4.78;;;3.10;;
19566;SDS011;9930;49.240;8.548;2023-10-13T10:56:11;3.35;;;2.70;;
19566;SDS011;9930;49.240;8.548;2023-10-13T10:58:59;4.32;;;3.22;;
19566;SDS011;9930;49.240;8.548;2023-10-13T11:01:29;5.63;;;2.75;;
19566;SDS011;9930;49.240;8.548;2023-10-13T11:04:06;3.03;;;2.72;;
19566;SDS011;9930;49.240;8.548;2023-10-13T11:06:44;5.40;;;3.05;;
19566;SDS011;9930;49.240;8.548;2023-10-13T11:09:24;3.33;;;3.00;;
19566;SDS011;9930;49.240;8.548;2023-10-13T11:12:10;4.40;;;3.05;;
19566;SDS011;9930;49.240;8.548;2023-10-13T11:14:49;3.35;;;3.03;;
19566;SDS011;9930;49.240;8.548;2023-10-13T11:17:51;3.65;;;2.80;;
19566;SDS011;9930;49.240;8.548;2023-10-13T11:20:20;3.30;;;2.95;;
19566;SDS011;9930;49.240;8.548;2023-10-13T11:22:58;6.40;;;3.10;;
19566;SDS011;9930;49.240;8.548;2023-10-13T11:25:33;3.10;;;2.80;;
19566;SDS011;9930;49.240;8.548;2023-10-13T11:28:12;3.22;;;2.65;;
19566;SDS011;9930;49.240;8.548;2023-10-13T11:30:48;3.70;;;2.85;;
19566;SDS011;9930;49.240;8.548;2023-10-13T11:33:17;4.80;;;2.92;;
19566;SDS011;9930;49.240;8.548;2023-10-13T11:35:49;7.13;;;3.13;;
19566;SDS011;9930;49.240;8.548;2023-10-13T11:38:18;3.83;;;3.00;;
19566;SDS011;9930;49.240;8.548;2023-10-13T11:41:15;3.47;;;2.70;;
19566;SDS011;9930;49.240;8.548;2023-10-13T11:43:48;3.55;;;2.90;;
19566;SDS011;9930;49.240;8.548;2023-10-13T11:46:17;4.30;;;2.95;;
19566;SDS011;9930;49.240;8.548;2023-10-13T11:49:01;3.40;;;2.97;;
19566;SDS011;9930;49.240;8.548;2023-10-13T11:51:43;4.63;;;2.83;;
19566;SDS011;9930;49.240;8.548;2023-10-13T11:56:50;3.35;;;3.05;;
19566;SDS011;9930;49.240;8.548;2023-10-13T11:59:16;3.60;;;3.00;;
19566;SDS011;9930;49.240;8.548;2023-10-13T12:01:49;3.90;;;3.20;;
19566;SDS011;9930;49.240;8.548;2023-10-13T12:04:39;3.83;;;2.97;;
19566;SDS011;9930;49.240;8.548;2023-10-13T12:07:09;3.90;;;3.13;;
19566;SDS011;9930;49.240;8.548;2023-10-13T12:09:54;3.30;;;2.80;;
19566;SDS011;9930;49.240;8.548;2023-10-13T12:12:20;3.53;;;3.10;;
19566;SDS011;9930;49.240;8.548;2023-10-13T12:14:47;3.78;;;3.05;;
19566;SDS011;9930;49.240;8.548;2023-10-13T12:20:03;3.53;;;2.88;;
19566;SDS011;9930;49.240;8.548;2023-10-13T12:22:31;3.90;;;3.00;;
19566;SDS011;9930;49.240;8.548;2023-10-13T12:25:06;3.63;;;3.08;;
19566;SDS011;9930;49.240;8.548;2023-10-13T12:27:55;6.13;;;3.10;;
19566;SDS011;9930;49.240;8.548;2023-10-13T12:30:37;3.20;;;2.80;;
19566;SDS011;9930;49.240;8.548;2023-10-13T12:33:19;3.70;;;3.10;;
19566;SDS011;9930;49.240;8.548;2023-10-13T12:35:59;3.28;;;2.97;;
19566;SDS011;9930;49.240;8.548;2023-10-13T12:38:38;4.18;;;3.08;;
19566;SDS011;9930;49.240;8.548;2023-10-13T12:41:14;3.90;;;3.20;;
19566;SDS011;9930;49.240;8.548;2023-10-13T12:43:58;3.42;;;2.88;;
19566;SDS011;9930;49.240;8.548;2023-10-13T12:46:43;4.60;;;3.20;;
19566;SDS011;9930;49.240;8.548;2023-10-13T12:49:28;4.10;;;3.05;;
19566;SDS011;9930;49.240;8.548;2023-10-13T12:52:13;4.15;;;3.03;;
19566;SDS011;9930;49.240;8.548;2023-10-13T12:55:06;3.13;;;2.90;;
19566;SDS011;9930;49.240;8.548;2023-10-13T12:57:34;4.30;;;3.10;;
19566;SDS011;9930;49.240;8.548;2023-10-13T13:00:10;3.92;;;3.20;;
19566;SDS011;9930;49.240;8.548;2023-10-13T13:02:42;3.80;;;3.40;;
19566;SDS011;9930;49.240;8.548;2023-10-13T13:05:08;4.82;;;3.33;;
19566;SDS011;9930;49.240;8.548;2023-10-13T13:07:40;3.45;;;3.15;;
19566;SDS011;9930;49.240;8.548;2023-10-13T13:10:12;3.65;;;3.30;;
19566;SDS011;9930;49.240;8.548;2023-10-13T13:12:42;3.45;;;3.15;;
19566;SDS011;9930;49.240;8.548;2023-10-13T13:15:08;4.50;;;3.13;;
19566;SDS011;9930;49.240;8.548;2023-10-13T13:17:39;3.30;;;2.95;;
19566;SDS011;9930;49.240;8.548;2023-10-13T13:20:06;5.88;;;3.13;;
19566;SDS011;9930;49.240;8.548;2023-10-13T13:22:39;5.28;;;3.00;;
19566;SDS011;9930;49.240;8.548;2023-10-13T13:25:05;3.88;;;3.00;;
19566;SDS011;9930;49.240;8.548;2023-10-13T13:27:33;3.90;;;2.88;;
19566;SDS011;9930;49.240;8.548;2023-10-13T13:30:06;4.25;;;3.15;;
19566;SDS011;9930;49.240;8.548;2023-10-13T13:32:38;6.45;;;3.15;;
19566;SDS011;9930;49.240;8.548;2023-10-13T13:35:06;3.42;;;3.13;;
19566;SDS011;9930;49.240;8.548;2023-10-13T13:37:41;3.55;;;3.17;;
19566;SDS011;9930;49.240;8.548;2023-10-13T13:40:09;3.45;;;3.15;;
19566;SDS011;9930;49.240;8.548;2023-10-13T13:42:45;5.50;;;3.38;;
19566;SDS011;9930;49.240;8.548;2023-10-13T13:45:14;4.03;;;3.10;;
19566;SDS011;9930;49.240;8.548;2023-10-13T13:47:48;3.92;;;3.08;;
19566;SDS011;9930;49.240;8.548;2023-10-13T13:50:19;4.30;;;3.22;;
19566;SDS011;9930;49.240;8.548;2023-10-13T13:52:53;3.40;;;2.80;;
19566;SDS011;9930;49.240;8.548;2023-10-13T13:55:23;3.75;;;2.70;;
19566;SDS011;9930;49.240;8.548;2023-10-13T13:57:56;4.57;;;3.42;;
19566;SDS011;9930;49.240;8.548;2023-10-13T14:00:25;3.92;;;3.15;;
19566;SDS011;9930;49.240;8.548;2023-10-13T14:03:06;3.03;;;2.50;;
19566;SDS011;9930;49.240;8.548;2023-10-13T14:05:53;3.25;;;2.70;;
19566;SDS011;9930;49.240;8.548;2023-10-13T14:08:24;3.60;;;2.88;;
19566;SDS011;9930;49.240;8.548;2023-10-13T14:10:55;3.75;;;3.10;;
19566;SDS011;9930;49.240;8.548;2023-10-13T14:13:48;3.00;;;2.55;;
19566;SDS011;9930;49.240;8.548;2023-10-13T14:16:22;4.97;;;2.80;;
19566;SDS011;9930;49.240;8.548;2023-10-13T14:18:49;4.72;;;3.47;;
19566;SDS011;9930;49.240;8.548;2023-10-13T14:21:19;3.50;;;2.85;;
19566;SDS011;9930;49.240;8.548;2023-10-13T14:23:52;5.22;;;3.22;;
19566;SDS011;9930;49.240;8.548;2023-10-13T14:26:18;3.40;;;2.72;;
19566;SDS011;9930;49.240;8.548;2023-10-13T14:28:47;3.72;;;2.97;;
19566;SDS011;9930;49.240;8.548;2023-10-13T14:31:35;4.70;;;2.80;;
19566;SDS011;9930;49.240;8.548;2023-10-13T14:34:02;5.00;;;2.80;;
19566;SDS011;9930;49.240;8.548;2023-10-13T14:36:30;4.78;;;2.70;;
19566;SDS011;9930;49.240;8.548;2023-10-13T14:38:59;3.65;;;2.60;;
19566;SDS011;9930;49.240;8.548;2023-10-13T14:41:27;3.88;;;2.80;;
19566;SDS011;9930;49.240;8.548;2023-10-13T14:43:58;4.15;;;3.30;;
19566;SDS011;9930;49.240;8.548;2023-10-13T14:46:32;3.55;;;3.00;;
19566;SDS011;9930;49.240;8.548;2023-10-13T14:49:01;4.50;;;2.72;;
19566;SDS011;9930;49.240;8.548;2023-10-13T14:51:27;3.08;;;2.70;;
19566;SDS011;9930;49.240;8.548;2023-10-13T14:53:59;3.28;;;2.90;;
19566;SDS011;9930;49.240;8.548;2023-10-13T14:56:25;4.28;;;2.90;;
19566;SDS011;9930;49.240;8.548;2023-10-13T14:58:54;4.22;;;2.60;;
19566;SDS011;9930;49.240;8.548;2023-10-13T15:01:22;3.42;;;2.55;;
19566;SDS011;9930;49.240;8.548;2023-10-13T15:03:52;3.67;;;2.97;;
19566;SDS011;9930;49.240;8.548;2023-10-13T15:06:21;5.10;;;2.70;;
19566;SDS011;9930;49.240;8.548;2023-10-13T15:08:56;5.45;;;2.75;;
19566;SDS011;9930;49.240;8.548;2023-10-13T15:11:23;4.18;;;3.05;;
19566;SDS011;9930;49.240;8.548;2023-10-13T15:14:03;4.32;;;2.80;;
19566;SDS011;9930;49.240;8.548;2023-10-13T15:16:34;3.60;;;3.10;;
19566;SDS011;9930;49.240;8.548;2023-10-13T15:19:00;4.40;;;2.90;;
19566;SDS011;9930;49.240;8.548;2023-10-13T15:21:28;5.65;;;2.75;;
19566;SDS011;9930;49.240;8.548;2023-10-13T15:23:59;3.20;;;2.53;;
19566;SDS011;9930;49.240;8.548;2023-10-13T15:26:38;3.78;;;2.55;;
19566;SDS011;9930;49.240;8.548;2023-10-13T15:29:07;3.75;;;2.60;;
19566;SDS011;9930;49.240;8.548;2023-10-13T15:31:38;3.55;;;2.83;;
19566;SDS011;9930;49.240;8.548;2023-10-13T15:34:12;5.32;;;3.97;;
19566;SDS011;9930;49.240;8.548;2023-10-13T15:36:43;6.40;;;3.42;;
19566;SDS011;9930;49.240;8.548;2023-10-13T15:39:09;3.60;;;3.17;;
19566;SDS011;9930;49.240;8.548;2023-10-13T15:41:37;4.60;;;3.25;;
19566;SDS011;9930;49.240;8.548;2023-10-13T15:44:10;3.85;;;2.95;;
19566;SDS011;9930;49.240;8.548;2023-10-13T15:46:38;5.05;;;3.42;;
19566;SDS011;9930;49.240;8.548;2023-10-13T15:49:05;4.93;;;3.30;;
19566;SDS011;9930;49.240;8.548;2023-10-13T15:51:36;4.65;;;3.65;;
19566;SDS011;9930;49.240;8.548;2023-10-13T15:54:02;4.30;;;3.90;;
19566;SDS011;9930;49.240;8.548;2023-10-13T15:56:29;4.07;;;3.67;;
19566;SDS011;9930;49.240;8.548;2023-10-13T15:58:59;4.47;;;3.35;;
19566;SDS011;9930;49.240;8.548;2023-10-13T16:01:30;4.32;;;2.67;;
19566;SDS011;9930;49.240;8.548;2023-10-13T16:03:58;5.13;;;3.45;;
19566;SDS011;9930;49.240;8.548;2023-10-13T16:06:24;4.05;;;3.25;;
19566;SDS011;9930;49.240;8.548;2023-10-13T16:08:50;4.00;;;3.30;;